Airfield :
LOGIN :

Register | Disclaimer

   EN    FR    IT 

 










Legend :    VFR   Marginal VFR   IFR   Intensive IFR   Very Intensive IFR
Visi :
Ceiling :
>= 8 km
>= 3000ft
5 to 8 km
1000 to 3000 ft
1500m to 5 km
500 to 1000 ft
800 to 1500m
200 to 500 ft
< 800m
< 200 ft
Symbols :   Thunderstorms  Fog  Heavy snow  Heavy precipitations  Wind > 20 kt
SIGMETs :     Misc.  Thunderstorms  Icing  Turbulence  Mountain Waves  Volcanic Ashes






- Airport Elevation : 39 ft
- IATA code : TRS


LIPQ - Friuli Venezia Giulia Apt. Trieste

CURRENT METAR :
  • 172150Z VRB02KT 2000 R09/0325V0650U BCFG NSC 02/02 Q1023

EXPIRED METARs :
  • 172120Z 06003KT 1500 R09/0325V0650N BCFG NSC 04/04 Q1023
  • 172050Z 06003KT 0800 R09/0375N BCFG NSC 04/04 Q1023
  • 172020Z 06002KT 1000 R09/0375N BCFG NSC 02/02 Q1024
  • 171950Z 07005KT 0600 R09/0500D BCFG NSC 05/05 Q1024
  • 171920Z 06004KT 0500 R09/0350N FG NSC 05/05 Q1024

TAF AMD TAF LIPQ
Valid from the 17 at 18:00 until the 18 at 18:00 UTC


171734Z 1718/1818 VRB04KT 9999 SCT040
TEMPO 1718/1806 0800 BCFG
TEMPO 1806/1818 SHRA
BECMG 1809/1811 03010KT



MET'MAP, your aeronautical weather chart ! - Copyright ORBIFLY December 2007 - Disclaimer

ORBIFLY MET'MAP TEAM :

Programming & Development : Alexandra Zaïnal
Concept & original design : Baudouin d'Aumeries
Assistance for programming : Marc-Olivier Méhu
Technical & hardware support : Manuel Goepfert

Contact : metmap@orbifly.com




SOURCES & CREDITS :

   NOAA